sensor_id;sensor_type;location;lat;lon;timestamp;pressure;altitude;pressure_sealevel;temperature;humidity
51239;BME280;38154;47.548;18.828;2023-02-28T00:00:35;99760.16;;;-1.43;85.41
51239;BME280;38154;47.548;18.828;2023-02-28T00:03:01;99768.12;;;-1.38;85.57
51239;BME280;38154;47.548;18.828;2023-02-28T00:05:28;99772.06;;;-1.30;84.21
51239;BME280;38154;47.548;18.828;2023-02-28T00:07:55;99777.97;;;-1.31;83.43
51239;BME280;38154;47.548;18.828;2023-02-28T00:10:26;99771.87;;;-1.33;83.87
51239;BME280;38154;47.548;18.828;2023-02-28T00:12:54;99779.16;;;-1.39;83.98
51239;BME280;38154;47.548;18.828;2023-02-28T00:15:22;99779.94;;;-1.40;84.65
51239;BME280;38154;47.548;18.828;2023-02-28T00:17:49;99782.00;;;-1.35;84.85
51239;BME280;38154;47.548;18.828;2023-02-28T00:20:16;99790.00;;;-1.30;84.86
51239;BME280;38154;47.548;18.828;2023-02-28T00:22:44;99782.88;;;-1.34;83.13
51239;BME280;38154;47.548;18.828;2023-02-28T00:25:12;99782.81;;;-1.36;84.96
51239;BME280;38154;47.548;18.828;2023-02-28T00:27:39;99784.97;;;-1.28;84.77
51239;BME280;38154;47.548;18.828;2023-02-28T00:30:07;99789.13;;;-1.31;84.77
51239;BME280;38154;47.548;18.828;2023-02-28T00:32:33;99795.41;;;-1.25;83.74
51239;BME280;38154;47.548;18.828;2023-02-28T00:35:00;99789.78;;;-1.20;86.62
51239;BME280;38154;47.548;18.828;2023-02-28T00:37:27;99802.78;;;-1.17;82.67
51239;BME280;38154;47.548;18.828;2023-02-28T00:39:53;99797.38;;;-1.21;82.53
51239;BME280;38154;47.548;18.828;2023-02-28T00:42:19;99793.44;;;-1.16;81.99
51239;BME280;38154;47.548;18.828;2023-02-28T00:44:45;99802.87;;;-1.15;84.31
51239;BME280;38154;47.548;18.828;2023-02-28T00:47:10;99805.13;;;-1.06;81.49
51239;BME280;38154;47.548;18.828;2023-02-28T00:49:36;99801.81;;;-1.05;81.67
51239;BME280;38154;47.548;18.828;2023-02-28T00:52:03;99804.06;;;-1.10;84.04
51239;BME280;38154;47.548;18.828;2023-02-28T00:54:29;99803.97;;;-1.12;83.82
51239;BME280;38154;47.548;18.828;2023-02-28T00:56:55;99805.34;;;-1.03;80.27
51239;BME280;38154;47.548;18.828;2023-02-28T00:59:20;99810.56;;;-1.02;82.30
51239;BME280;38154;47.548;18.828;2023-02-28T01:01:47;99803.25;;;-0.96;79.37
51239;BME280;38154;47.548;18.828;2023-02-28T01:04:13;99799.41;;;-0.89;79.41
51239;BME280;38154;47.548;18.828;2023-02-28T01:06:39;99804.44;;;-0.77;79.17
51239;BME280;38154;47.548;18.828;2023-02-28T01:09:06;99798.19;;;-0.67;74.74
51239;BME280;38154;47.548;18.828;2023-02-28T01:11:33;99807.22;;;-0.46;74.92
51239;BME280;38154;47.548;18.828;2023-02-28T01:13:59;99807.88;;;-0.35;71.29
51239;BME280;38154;47.548;18.828;2023-02-28T01:16:25;99808.09;;;-0.17;69.28
51239;BME280;38154;47.548;18.828;2023-02-28T01:18:51;99805.38;;;-0.05;69.40
51239;BME280;38154;47.548;18.828;2023-02-28T01:21:20;99812.50;;;-0.01;69.89
51239;BME280;38154;47.548;18.828;2023-02-28T01:23:47;99808.13;;;-0.02;68.91
51239;BME280;38154;47.548;18.828;2023-02-28T01:26:15;99812.06;;;0.06;68.34
51239;BME280;38154;47.548;18.828;2023-02-28T01:28:42;99804.09;;;0.16;66.56
51239;BME280;38154;47.548;18.828;2023-02-28T01:31:08;99807.69;;;0.18;66.39
51239;BME280;38154;47.548;18.828;2023-02-28T01:33:35;99805.81;;;0.16;65.45
51239;BME280;38154;47.548;18.828;2023-02-28T01:36:06;99799.78;;;0.15;65.70
51239;BME280;38154;47.548;18.828;2023-02-28T01:38:33;99799.69;;;0.14;66.51
51239;BME280;38154;47.548;18.828;2023-02-28T01:40:59;99804.72;;;0.12;65.88
51239;BME280;38154;47.548;18.828;2023-02-28T01:43:28;99797.13;;;0.14;65.51
51239;BME280;38154;47.548;18.828;2023-02-28T01:45:56;99798.62;;;0.10;65.65
51239;BME280;38154;47.548;18.828;2023-02-28T01:48:32;99798.78;;;0.13;65.29
51239;BME280;38154;47.548;18.828;2023-02-28T01:51:02;99796.06;;;0.10;64.71
51239;BME280;38154;47.548;18.828;2023-02-28T01:53:34;99783.94;;;0.08;65.49
51239;BME280;38154;47.548;18.828;2023-02-28T01:56:04;99793.03;;;0.03;65.16
51239;BME280;38154;47.548;18.828;2023-02-28T01:58:32;99787.72;;;-0.01;66.74
51239;BME280;38154;47.548;18.828;2023-02-28T02:00:58;99797.78;;;-0.04;65.06
51239;BME280;38154;47.548;18.828;2023-02-28T02:03:24;99798.50;;;-0.06;66.13
51239;BME280;38154;47.548;18.828;2023-02-28T02:05:50;99798.22;;;-0.11;65.40
51239;BME280;38154;47.548;18.828;2023-02-28T02:08:20;99802.66;;;-0.08;66.25
51239;BME280;38154;47.548;18.828;2023-02-28T02:10:53;99797.44;;;-0.10;65.74
51239;BME280;38154;47.548;18.828;2023-02-28T02:27:01;99787.37;;;-0.07;65.86
51239;BME280;38154;47.548;18.828;2023-02-28T02:37:43;99788.34;;;-0.05;66.59
51239;BME280;38154;47.548;18.828;2023-02-28T02:45:35;99790.53;;;-0.11;68.94
51239;BME280;38154;47.548;18.828;2023-02-28T02:48:06;99790.63;;;-0.09;65.18
51239;BME280;38154;47.548;18.828;2023-02-28T02:50:45;99792.31;;;-0.10;65.86
51239;BME280;38154;47.548;18.828;2023-02-28T02:53:16;99794.78;;;-0.11;68.03
51239;BME280;38154;47.548;18.828;2023-02-28T02:55:46;99787.87;;;-0.12;66.61
51239;BME280;38154;47.548;18.828;2023-02-28T02:58:15;99795.75;;;-0.09;65.97
51239;BME280;38154;47.548;18.828;2023-02-28T03:00:46;99797.34;;;-0.11;66.19
51239;BME280;38154;47.548;18.828;2023-02-28T03:03:16;99799.00;;;-0.12;65.92
51239;BME280;38154;47.548;18.828;2023-02-28T03:05:47;99800.31;;;-0.19;66.04
51239;BME280;38154;47.548;18.828;2023-02-28T03:08:13;99801.41;;;-0.15;66.97
51239;BME280;38154;47.548;18.828;2023-02-28T03:10:45;99799.81;;;-0.13;65.38
51239;BME280;38154;47.548;18.828;2023-02-28T03:18:47;99809.75;;;-0.32;66.65
51239;BME280;38154;47.548;18.828;2023-02-28T03:26:45;99814.66;;;-0.35;66.87
51239;BME280;38154;47.548;18.828;2023-02-28T03:29:28;99810.16;;;-0.40;66.54
51239;BME280;38154;47.548;18.828;2023-02-28T03:32:17;99807.41;;;-0.43;66.55
51239;BME280;38154;47.548;18.828;2023-02-28T03:35:17;99808.19;;;-0.44;66.86
51239;BME280;38154;47.548;18.828;2023-02-28T03:37:50;99816.84;;;-0.28;66.37
51239;BME280;38154;47.548;18.828;2023-02-28T03:40:23;99808.00;;;-0.19;66.04
51239;BME280;38154;47.548;18.828;2023-02-28T03:42:55;99810.75;;;-0.15;66.48
51239;BME280;38154;47.548;18.828;2023-02-28T03:45:27;99815.00;;;-0.16;65.35
51239;BME280;38154;47.548;18.828;2023-02-28T03:47:57;99804.38;;;-0.22;67.13
51239;BME280;38154;47.548;18.828;2023-02-28T03:50:36;99806.88;;;-0.37;67.89
51239;BME280;38154;47.548;18.828;2023-02-28T03:53:23;99802.87;;;-0.19;65.82
51239;BME280;38154;47.548;18.828;2023-02-28T03:56:03;99812.94;;;-0.08;66.07
51239;BME280;38154;47.548;18.828;2023-02-28T03:58:47;99810.84;;;-0.14;65.11
51239;BME280;38154;47.548;18.828;2023-02-28T04:01:22;99813.41;;;-0.14;65.81
51239;BME280;38154;47.548;18.828;2023-02-28T04:03:50;99804.94;;;-0.13;65.19
51239;BME280;38154;47.548;18.828;2023-02-28T04:06:18;99815.97;;;-0.14;65.13
51239;BME280;38154;47.548;18.828;2023-02-28T04:08:45;99806.34;;;-0.18;65.25
51239;BME280;38154;47.548;18.828;2023-02-28T04:13:43;99809.00;;;-0.16;65.14
51239;BME280;38154;47.548;18.828;2023-02-28T04:16:09;99808.09;;;-0.17;65.44
51239;BME280;38154;47.548;18.828;2023-02-28T04:18:38;99802.00;;;-0.19;65.67
51239;BME280;38154;47.548;18.828;2023-02-28T04:21:05;99807.50;;;-0.13;65.38
51239;BME280;38154;47.548;18.828;2023-02-28T04:23:31;99806.69;;;-0.12;65.67
51239;BME280;38154;47.548;18.828;2023-02-28T04:25:57;99801.66;;;-0.10;65.23
51239;BME280;38154;47.548;18.828;2023-02-28T04:28:23;99808.56;;;-0.09;65.22
51239;BME280;38154;47.548;18.828;2023-02-28T04:31:00;99805.31;;;-0.07;65.34
51239;BME280;38154;47.548;18.828;2023-02-28T04:33:26;99800.00;;;-0.10;66.83
51239;BME280;38154;47.548;18.828;2023-02-28T04:38:25;99790.88;;;-0.20;65.73
51239;BME280;38154;47.548;18.828;2023-02-28T04:40:51;99791.94;;;-0.16;66.35
51239;BME280;38154;47.548;18.828;2023-02-28T04:43:17;99791.66;;;-0.21;66.73
51239;BME280;38154;47.548;18.828;2023-02-28T04:45:43;99797.25;;;-0.13;67.29
51239;BME280;38154;47.548;18.828;2023-02-28T04:48:09;99797.53;;;-0.08;66.89
51239;BME280;38154;47.548;18.828;2023-02-28T04:50:35;99791.16;;;-0.15;67.33
51239;BME280;38154;47.548;18.828;2023-02-28T04:53:01;99792.00;;;-0.29;68.24
51239;BME280;38154;47.548;18.828;2023-02-28T04:55:27;99798.13;;;-0.12;66.78
51239;BME280;38154;47.548;18.828;2023-02-28T04:57:52;99802.81;;;-0.05;66.82
51239;BME280;38154;47.548;18.828;2023-02-28T05:00:18;99798.41;;;-0.08;66.71
51239;BME280;38154;47.548;18.828;2023-02-28T05:02:44;99798.56;;;-0.20;67.69
51239;BME280;38154;47.548;18.828;2023-02-28T05:05:10;99794.25;;;-0.06;67.22
51239;BME280;38154;47.548;18.828;2023-02-28T05:07:37;99803.53;;;-0.08;67.09
51239;BME280;38154;47.548;18.828;2023-02-28T05:10:03;99800.19;;;-0.07;67.25
51239;BME280;38154;47.548;18.828;2023-02-28T05:12:29;99798.72;;;-0.31;67.51
51239;BME280;38154;47.548;18.828;2023-02-28T05:14:55;99811.44;;;-0.33;66.98
51239;BME280;38154;47.548;18.828;2023-02-28T05:17:21;99804.84;;;-0.43;68.29
51239;BME280;38154;47.548;18.828;2023-02-28T05:19:47;99812.16;;;-0.49;71.22
51239;BME280;38154;47.548;18.828;2023-02-28T05:22:14;99811.78;;;-0.55;69.89
51239;BME280;38154;47.548;18.828;2023-02-28T05:24:42;99808.41;;;-0.54;68.39
51239;BME280;38154;47.548;18.828;2023-02-28T05:27:08;99819.47;;;-0.55;69.06
51239;BME280;38154;47.548;18.828;2023-02-28T05:29:35;99822.38;;;-0.49;70.55
51239;BME280;38154;47.548;18.828;2023-02-28T05:32:10;99817.00;;;-0.53;69.16
51239;BME280;38154;47.548;18.828;2023-02-28T05:34:37;99825.66;;;-0.51;70.51
51239;BME280;38154;47.548;18.828;2023-02-28T05:37:05;99826.44;;;-0.52;73.45
51239;BME280;38154;47.548;18.828;2023-02-28T05:39:31;99819.19;;;-0.60;72.17
51239;BME280;38154;47.548;18.828;2023-02-28T05:41:57;99819.06;;;-0.61;71.16
51239;BME280;38154;47.548;18.828;2023-02-28T05:44:22;99829.44;;;-0.60;71.83
51239;BME280;38154;47.548;18.828;2023-02-28T05:46:48;99832.84;;;-0.59;72.06
51239;BME280;38154;47.548;18.828;2023-02-28T05:49:14;99831.56;;;-0.52;75.01
51239;BME280;38154;47.548;18.828;2023-02-28T05:51:40;99832.94;;;-0.44;75.01
51239;BME280;38154;47.548;18.828;2023-02-28T05:54:06;99824.38;;;-0.45;74.05
51239;BME280;38154;47.548;18.828;2023-02-28T05:56:32;99829.50;;;-0.45;76.53
51239;BME280;38154;47.548;18.828;2023-02-28T05:59:00;99840.91;;;-0.40;76.21
51239;BME280;38154;47.548;18.828;2023-02-28T06:01:37;99838.22;;;-0.28;75.92
51239;BME280;38154;47.548;18.828;2023-02-28T06:04:05;99846.44;;;-0.19;73.92
51239;BME280;38154;47.548;18.828;2023-02-28T06:06:32;99850.69;;;-0.19;74.32
51239;BME280;38154;47.548;18.828;2023-02-28T06:09:00;99849.69;;;-0.08;72.45
51239;BME280;38154;47.548;18.828;2023-02-28T06:11:26;99848.91;;;0.08;69.14
51239;BME280;38154;47.548;18.828;2023-02-28T06:13:54;99852.31;;;0.07;70.70
51239;BME280;38154;47.548;18.828;2023-02-28T06:16:20;99852.84;;;0.16;71.43
51239;BME280;38154;47.548;18.828;2023-02-28T06:18:46;99852.78;;;0.30;69.86
51239;BME280;38154;47.548;18.828;2023-02-28T06:21:12;99845.16;;;0.31;69.44
51239;BME280;38154;47.548;18.828;2023-02-28T06:23:38;99849.53;;;0.32;68.21
51239;BME280;38154;47.548;18.828;2023-02-28T06:26:04;99849.94;;;0.40;70.09
51239;BME280;38154;47.548;18.828;2023-02-28T06:28:31;99859.09;;;0.50;68.24
51239;BME280;38154;47.548;18.828;2023-02-28T06:30:57;99867.94;;;0.70;67.25
51239;BME280;38154;47.548;18.828;2023-02-28T06:33:23;99866.81;;;0.95;65.56
51239;BME280;38154;47.548;18.828;2023-02-28T06:35:52;99867.06;;;0.99;66.55
51239;BME280;38154;47.548;18.828;2023-02-28T06:38:18;99873.19;;;1.01;68.09
51239;BME280;38154;47.548;18.828;2023-02-28T06:40:53;99872.13;;;0.98;67.47
51239;BME280;38154;47.548;18.828;2023-02-28T06:43:18;99869.56;;;0.98;67.76
51239;BME280;38154;47.548;18.828;2023-02-28T06:45:44;99869.53;;;1.27;65.50
51239;BME280;38154;47.548;18.828;2023-02-28T06:48:10;99868.50;;;1.40;65.87
51239;BME280;38154;47.548;18.828;2023-02-28T06:50:36;99859.84;;;1.86;65.06
51239;BME280;38154;47.548;18.828;2023-02-28T06:53:02;99861.28;;;2.14;61.39
51239;BME280;38154;47.548;18.828;2023-02-28T06:55:28;99863.53;;;2.40;61.14
51239;BME280;38154;47.548;18.828;2023-02-28T06:57:54;99863.53;;;3.45;58.54
51239;BME280;38154;47.548;18.828;2023-02-28T07:00:21;99860.53;;;4.52;53.07
51239;BME280;38154;47.548;18.828;2023-02-28T07:02:47;99862.59;;;5.01;51.92
51239;BME280;38154;47.548;18.828;2023-02-28T07:05:13;99867.69;;;5.64;50.25
51239;BME280;38154;47.548;18.828;2023-02-28T07:07:39;99870.47;;;5.69;50.72
51239;BME280;38154;47.548;18.828;2023-02-28T07:10:10;99879.41;;;5.77;47.16
51239;BME280;38154;47.548;18.828;2023-02-28T07:12:37;99875.41;;;6.56;46.61
51239;BME280;38154;47.548;18.828;2023-02-28T07:15:06;99879.22;;;7.19;44.70
51239;BME280;38154;47.548;18.828;2023-02-28T07:17:32;99876.63;;;7.17;43.76
51239;BME280;38154;47.548;18.828;2023-02-28T07:19:58;99879.66;;;6.80;43.91
51239;BME280;38154;47.548;18.828;2023-02-28T07:22:24;99878.28;;;6.40;45.51
51239;BME280;38154;47.548;18.828;2023-02-28T07:24:51;99882.56;;;5.92;47.69
51239;BME280;38154;47.548;18.828;2023-02-28T07:27:17;99888.81;;;5.75;49.07
51239;BME280;38154;47.548;18.828;2023-02-28T07:29:49;99884.84;;;5.85;47.66
51239;BME280;38154;47.548;18.828;2023-02-28T07:32:16;99886.28;;;5.76;48.58
51239;BME280;38154;47.548;18.828;2023-02-28T07:34:41;99887.56;;;5.88;48.44
51239;BME280;38154;47.548;18.828;2023-02-28T07:37:07;99881.91;;;5.97;47.39
51239;BME280;38154;47.548;18.828;2023-02-28T07:39:33;99890.19;;;6.10;46.22
51239;BME280;38154;47.548;18.828;2023-02-28T07:41:59;99886.37;;;6.25;46.18
51239;BME280;38154;47.548;18.828;2023-02-28T07:44:26;99891.41;;;6.44;45.85
51239;BME280;38154;47.548;18.828;2023-02-28T07:46:52;99895.13;;;6.77;46.00
51239;BME280;38154;47.548;18.828;2023-02-28T07:49:18;99893.34;;;7.27;45.02
51239;BME280;38154;47.548;18.828;2023-02-28T07:51:44;99896.38;;;7.97;43.93
51239;BME280;38154;47.548;18.828;2023-02-28T07:54:10;99896.97;;;8.79;41.90
51239;BME280;38154;47.548;18.828;2023-02-28T07:56:36;99891.81;;;8.81;41.30
51239;BME280;38154;47.548;18.828;2023-02-28T07:59:02;99898.34;;;9.70;38.98
51239;BME280;38154;47.548;18.828;2023-02-28T08:01:28;99908.00;;;9.37;39.61
51239;BME280;38154;47.548;18.828;2023-02-28T08:03:54;99904.69;;;9.09;40.40
51239;BME280;38154;47.548;18.828;2023-02-28T08:06:23;99899.97;;;8.95;39.49
51239;BME280;38154;47.548;18.828;2023-02-28T08:08:49;99895.91;;;8.71;41.29
51239;BME280;38154;47.548;18.828;2023-02-28T08:11:16;99896.22;;;8.50;41.50
51239;BME280;38154;47.548;18.828;2023-02-28T08:13:43;99897.34;;;8.93;41.25
51239;BME280;38154;47.548;18.828;2023-02-28T08:16:09;99895.28;;;9.15;40.66
51239;BME280;38154;47.548;18.828;2023-02-28T08:18:35;99899.00;;;9.24;39.90
51239;BME280;38154;47.548;18.828;2023-02-28T08:21:11;99896.63;;;9.72;39.27
51239;BME280;38154;47.548;18.828;2023-02-28T08:23:37;99898.88;;;10.32;38.56
51239;BME280;38154;47.548;18.828;2023-02-28T08:26:03;99897.38;;;10.92;37.64
51239;BME280;38154;47.548;18.828;2023-02-28T08:28:29;99888.94;;;12.22;34.82
51239;BME280;38154;47.548;18.828;2023-02-28T08:30:55;99892.88;;;12.61;33.47
51239;BME280;38154;47.548;18.828;2023-02-28T08:33:22;99887.19;;;14.28;31.78
51239;BME280;38154;47.548;18.828;2023-02-28T08:35:48;99898.81;;;15.16;29.62
51239;BME280;38154;47.548;18.828;2023-02-28T08:38:14;99890.03;;;15.68;29.13
51239;BME280;38154;47.548;18.828;2023-02-28T08:40:40;99884.75;;;15.90;28.50
51239;BME280;38154;47.548;18.828;2023-02-28T08:43:06;99888.19;;;16.17;29.23
51239;BME280;38154;47.548;18.828;2023-02-28T08:45:32;99887.16;;;16.50;27.34
51239;BME280;38154;47.548;18.828;2023-02-28T08:47:58;99887.41;;;15.82;27.44
51239;BME280;38154;47.548;18.828;2023-02-28T08:50:24;99887.41;;;15.53;28.83
51239;BME280;38154;47.548;18.828;2023-02-28T08:52:49;99886.53;;;15.45;29.11
51239;BME280;38154;47.548;18.828;2023-02-28T08:55:15;99894.41;;;15.68;28.92
51239;BME280;38154;47.548;18.828;2023-02-28T08:57:41;99883.72;;;16.37;28.05
51239;BME280;38154;47.548;18.828;2023-02-28T09:00:08;99890.47;;;16.91;26.85
51239;BME280;38154;47.548;18.828;2023-02-28T09:02:34;99890.84;;;17.53;27.04
51239;BME280;38154;47.548;18.828;2023-02-28T09:04:59;99893.75;;;17.23;27.13
51239;BME280;38154;47.548;18.828;2023-02-28T09:07:25;99889.72;;;16.62;26.59
51239;BME280;38154;47.548;18.828;2023-02-28T09:09:51;99888.00;;;16.61;25.68
51239;BME280;38154;47.548;18.828;2023-02-28T09:12:24;99890.66;;;16.55;25.97
51239;BME280;38154;47.548;18.828;2023-02-28T09:14:51;99889.75;;;16.61;25.19
51239;BME280;38154;47.548;18.828;2023-02-28T09:17:18;99890.56;;;16.72;24.36
51239;BME280;38154;47.548;18.828;2023-02-28T09:19:44;99899.19;;;17.00;25.51
51239;BME280;38154;47.548;18.828;2023-02-28T09:22:11;99888.19;;;17.56;25.07
51239;BME280;38154;47.548;18.828;2023-02-28T09:24:37;99889.97;;;17.57;23.55
51239;BME280;38154;47.548;18.828;2023-02-28T09:27:03;99894.28;;;17.64;23.85
51239;BME280;38154;47.548;18.828;2023-02-28T09:29:31;99891.91;;;18.23;23.99
51239;BME280;38154;47.548;18.828;2023-02-28T09:31:57;99891.00;;;18.26;24.12
51239;BME280;38154;47.548;18.828;2023-02-28T09:34:27;99898.47;;;18.61;22.39
51239;BME280;38154;47.548;18.828;2023-02-28T09:36:52;99895.22;;;17.58;24.03
51239;BME280;38154;47.548;18.828;2023-02-28T09:39:21;99886.13;;;17.92;23.69
51239;BME280;38154;47.548;18.828;2023-02-28T09:41:51;99889.94;;;17.58;24.22
51239;BME280;38154;47.548;18.828;2023-02-28T09:44:27;99891.94;;;17.30;23.73
51239;BME280;38154;47.548;18.828;2023-02-28T09:46:58;99894.00;;;16.93;24.04
51239;BME280;38154;47.548;18.828;2023-02-28T09:49:37;99894.03;;;16.88;25.17
51239;BME280;38154;47.548;18.828;2023-02-28T09:52:09;99899.50;;;17.70;23.95
51239;BME280;38154;47.548;18.828;2023-02-28T09:54:36;99892.13;;;18.05;24.81
51239;BME280;38154;47.548;18.828;2023-02-28T09:59:44;99896.13;;;16.06;25.37
51239;BME280;38154;47.548;18.828;2023-02-28T10:02:26;99891.63;;;14.41;27.09
51239;BME280;38154;47.548;18.828;2023-02-28T10:05:02;99895.53;;;13.61;28.73
51239;BME280;38154;47.548;18.828;2023-02-28T10:10:23;99879.53;;;14.96;27.56
51239;BME280;38154;47.548;18.828;2023-02-28T10:12:53;99876.00;;;15.83;27.62
51239;BME280;38154;47.548;18.828;2023-02-28T10:15:22;99873.38;;;15.88;26.08
51239;BME280;38154;47.548;18.828;2023-02-28T10:17:54;99888.25;;;14.79;27.29
51239;BME280;38154;47.548;18.828;2023-02-28T10:20:23;99887.37;;;14.68;26.99
51239;BME280;38154;47.548;18.828;2023-02-28T10:23:17;99884.75;;;13.25;28.95
51239;BME280;38154;47.548;18.828;2023-02-28T10:25:52;99883.06;;;12.41;29.76
51239;BME280;38154;47.548;18.828;2023-02-28T10:28:19;99884.75;;;13.25;29.87
51239;BME280;38154;47.548;18.828;2023-02-28T10:30:50;99877.81;;;13.27;29.25
51239;BME280;38154;47.548;18.828;2023-02-28T10:33:35;99876.34;;;13.63;28.77
51239;BME280;38154;47.548;18.828;2023-02-28T10:36:02;99870.13;;;13.49;29.86
51239;BME280;38154;47.548;18.828;2023-02-28T10:38:34;99859.75;;;13.61;29.63
51239;BME280;38154;47.548;18.828;2023-02-28T10:41:27;99855.72;;;14.34;28.55
51239;BME280;38154;47.548;18.828;2023-02-28T10:44:12;99852.22;;;14.29;28.73
51239;BME280;38154;47.548;18.828;2023-02-28T10:46:40;99857.63;;;14.75;28.35
51239;BME280;38154;47.548;18.828;2023-02-28T10:49:13;99849.75;;;14.81;28.37
51239;BME280;38154;47.548;18.828;2023-02-28T10:51:41;99844.50;;;15.51;27.31
51239;BME280;38154;47.548;18.828;2023-02-28T10:54:19;99844.50;;;14.94;28.17
51239;BME280;38154;47.548;18.828;2023-02-28T10:56:45;99838.38;;;15.35;28.72
51239;BME280;38154;47.548;18.828;2023-02-28T11:01:42;99838.41;;;14.92;28.13
51239;BME280;38154;47.548;18.828;2023-02-28T11:09:33;99837.50;;;15.28;28.05
51239;BME280;38154;47.548;18.828;2023-02-28T11:12:02;99833.13;;;15.19;29.18
51239;BME280;38154;47.548;18.828;2023-02-28T11:14:34;99829.62;;;15.10;28.22
51239;BME280;38154;47.548;18.828;2023-02-28T11:17:13;99835.47;;;13.99;30.62
51239;BME280;38154;47.548;18.828;2023-02-28T11:19:46;99841.41;;;13.61;30.56
51239;BME280;38154;47.548;18.828;2023-02-28T11:22:19;99841.44;;;12.63;32.17
51239;BME280;38154;47.548;18.828;2023-02-28T11:24:48;99841.81;;;12.17;33.36
51239;BME280;38154;47.548;18.828;2023-02-28T11:30:00;99833.19;;;12.26;33.54
51239;BME280;38154;47.548;18.828;2023-02-28T11:32:30;99835.66;;;12.96;33.26
51239;BME280;38154;47.548;18.828;2023-02-28T11:35:44;99833.84;;;12.88;32.70
51239;BME280;38154;47.548;18.828;2023-02-28T11:37:50;99827.34;;;12.49;33.36
51239;BME280;38154;47.548;18.828;2023-02-28T11:40:20;99825.44;;;11.68;34.08
51239;BME280;38154;47.548;18.828;2023-02-28T11:45:31;99822.91;;;11.73;33.64
51239;BME280;38154;47.548;18.828;2023-02-28T11:53:45;99824.16;;;12.79;32.58
51239;BME280;38154;47.548;18.828;2023-02-28T11:56:28;99818.50;;;13.35;30.94
51239;BME280;38154;47.548;18.828;2023-02-28T12:04:49;99816.69;;;12.29;31.71
51239;BME280;38154;47.548;18.828;2023-02-28T12:07:32;99813.62;;;10.77;36.50
51239;BME280;38154;47.548;18.828;2023-02-28T12:15:27;99808.59;;;9.96;37.09
51239;BME280;38154;47.548;18.828;2023-02-28T12:20:46;99792.84;;;9.11;38.17
51239;BME280;38154;47.548;18.828;2023-02-28T12:26:37;99790.44;;;8.17;41.49
51239;BME280;38154;47.548;18.828;2023-02-28T12:29:17;99782.97;;;8.60;40.80
51239;BME280;38154;47.548;18.828;2023-02-28T12:31:56;99771.91;;;8.68;40.87
51239;BME280;38154;47.548;18.828;2023-02-28T12:34:30;99774.00;;;8.48;41.15
51239;BME280;38154;47.548;18.828;2023-02-28T12:37:01;99768.06;;;8.22;42.45
51239;BME280;38154;47.548;18.828;2023-02-28T12:39:42;99769.03;;;7.94;43.84
51239;BME280;38154;47.548;18.828;2023-02-28T12:42:22;99772.00;;;7.76;43.14
51239;BME280;38154;47.548;18.828;2023-02-28T12:44:54;99762.09;;;7.93;44.82
51239;BME280;38154;47.548;18.828;2023-02-28T12:47:22;99763.31;;;7.75;43.56
51239;BME280;38154;47.548;18.828;2023-02-28T12:50:07;99769.81;;;7.59;45.53
51239;BME280;38154;47.548;18.828;2023-02-28T12:55:21;99758.16;;;7.47;45.08
51239;BME280;38154;47.548;18.828;2023-02-28T13:09:26;99747.88;;;6.92;46.69
51239;BME280;38154;47.548;18.828;2023-02-28T13:11:53;99745.75;;;6.80;47.38
51239;BME280;38154;47.548;18.828;2023-02-28T13:14:27;99744.13;;;6.82;48.08
51239;BME280;38154;47.548;18.828;2023-02-28T13:19:30;99746.31;;;6.97;47.15
51239;BME280;38154;47.548;18.828;2023-02-28T13:21:58;99734.94;;;7.21;46.83
51239;BME280;38154;47.548;18.828;2023-02-28T13:24:48;99735.34;;;7.35;47.63
51239;BME280;38154;47.548;18.828;2023-02-28T13:29:41;99737.06;;;7.07;46.81
51239;BME280;38154;47.548;18.828;2023-02-28T13:34:40;99733.72;;;7.38;46.53
51239;BME280;38154;47.548;18.828;2023-02-28T14:06:15;99726.50;;;6.99;47.93
51239;BME280;38154;47.548;18.828;2023-02-28T14:08:52;99718.78;;;6.74;47.86
51239;BME280;38154;47.548;18.828;2023-02-28T14:11:45;99726.56;;;6.75;49.18
51239;BME280;38154;47.548;18.828;2023-02-28T14:17:14;99721.00;;;6.36;49.53
51239;BME280;38154;47.548;18.828;2023-02-28T14:19:44;99718.13;;;6.28;50.09
51239;BME280;38154;47.548;18.828;2023-02-28T14:33:35;99714.47;;;6.74;48.85
51239;BME280;38154;47.548;18.828;2023-02-28T14:36:10;99709.28;;;6.74;48.66
51239;BME280;38154;47.548;18.828;2023-02-28T14:38:53;99716.94;;;6.44;49.70
51239;BME280;38154;47.548;18.828;2023-02-28T14:41:23;99704.94;;;6.20;50.00
51239;BME280;38154;47.548;18.828;2023-02-28T14:43:58;99707.59;;;6.22;50.29
51239;BME280;38154;47.548;18.828;2023-02-28T14:46:27;99713.31;;;6.13;50.46
51239;BME280;38154;47.548;18.828;2023-02-28T14:48:55;99711.50;;;6.36;50.81
51239;BME280;38154;47.548;18.828;2023-02-28T14:51:23;99708.81;;;6.33;50.44
51239;BME280;38154;47.548;18.828;2023-02-28T14:53:52;99704.81;;;6.43;50.69
51239;BME280;38154;47.548;18.828;2023-02-28T14:56:38;99709.78;;;6.37;50.00
51239;BME280;38154;47.548;18.828;2023-02-28T14:59:05;99716.91;;;6.42;52.09
51239;BME280;38154;47.548;18.828;2023-02-28T15:01:31;99717.19;;;6.52;50.69
51239;BME280;38154;47.548;18.828;2023-02-28T15:04:05;99715.03;;;6.38;50.16
51239;BME280;38154;47.548;18.828;2023-02-28T15:06:32;99717.22;;;6.26;50.46
51239;BME280;38154;47.548;18.828;2023-02-28T15:09:16;99717.84;;;6.19;50.61
51239;BME280;38154;47.548;18.828;2023-02-28T15:11:50;99720.09;;;6.09;50.99
51239;BME280;38154;47.548;18.828;2023-02-28T15:14:21;99711.06;;;5.98;52.64
51239;BME280;38154;47.548;18.828;2023-02-28T15:16:56;99716.53;;;6.06;51.70
51239;BME280;38154;47.548;18.828;2023-02-28T15:19:32;99723.19;;;5.99;52.82
51239;BME280;38154;47.548;18.828;2023-02-28T15:22:04;99721.78;;;5.85;51.80
51239;BME280;38154;47.548;18.828;2023-02-28T15:24:36;99723.12;;;5.73;52.82
51239;BME280;38154;47.548;18.828;2023-02-28T15:27:06;99730.97;;;5.52;52.88
51239;BME280;38154;47.548;18.828;2023-02-28T15:29:42;99721.00;;;5.39;53.55
51239;BME280;38154;47.548;18.828;2023-02-28T15:32:23;99712.19;;;5.34;54.31
51239;BME280;38154;47.548;18.828;2023-02-28T15:34:49;99717.31;;;5.32;54.46